Time;durP1;ratioP1;P1;durP2;ratioP2;P2;SDS_P1;SDS_P2;PMS_P1;PMS_P2;Temp;Humidity;BMP_temperature;BMP_pressure;BME280_temperature;BME280_humidity;BME280_pressure;Samples;Min_cycle;Max_cycle;Signal;HPM_P1;HPM_P2
2022/02/03 00:02:25;;;;;;;3.13;0.67;;;;;;;2.58;65.02;97960.06;6251725;28;20235;-72
2022/02/03 00:09:13;;;;;;;2.67;1.07;;;;;;;2.58;64.69;97960.06;6280616;28;20228;-72
2022/02/03 00:22:37;;;;;;;3.80;1.00;;;;;;;2.49;65.69;97996.09;6242190;28;20232;-73
2022/02/03 00:25:43;;;;;;;2.73;0.93;;;;;;;2.64;64.18;98008.44;6255402;28;20285;-73
2022/02/03 00:28:48;;;;;;;1.57;0.73;;;;;;;2.63;63.94;98004.13;6276820;28;20241;-73
2022/02/03 00:32:12;;;;;;;1.47;0.70;;;;;;;2.58;64.57;98009.56;6260651;28;20648;-72
2022/02/03 00:48:32;;;;;;;2.17;0.90;;;;;;;2.56;65.24;98019.19;6237633;28;20234;-72
2022/02/03 00:51:35;;;;;;;2.00;0.90;;;;;;;2.56;65.42;98032.22;6241126;28;20233;-73
2022/02/03 00:54:38;;;;;;;3.80;1.00;;;;;;;2.55;65.18;98027.06;6238126;28;20232;-72
2022/02/03 00:57:43;;;;;;;3.40;1.00;;;;;;;2.53;66.12;98036.72;6239899;28;20229;-72
2022/02/03 01:00:59;;;;;;;4.40;0.90;;;;;;;2.56;65.21;98041.78;6235712;28;20235;-73
2022/02/03 01:04:09;;;;;;;3.53;0.80;;;;;;;2.54;65.49;98036.66;6235477;28;20317;-73
2022/02/03 01:07:16;;;;;;;2.57;0.83;;;;;;;2.50;66.08;98039.44;6233734;28;20244;-73
2022/02/03 01:10:29;;;;;;;2.07;1.00;;;;;;;2.46;65.79;98045.69;6249417;28;20247;-72
2022/02/03 01:13:43;;;;;;;3.20;0.80;;;;;;;2.47;65.63;98056.06;6236630;28;20245;-73
2022/02/03 01:20:35;;;;;;;3.93;0.90;;;;;;;2.48;65.33;98051.69;6234611;28;20240;-71
2022/02/03 01:33:38;;;;;;;5.10;1.00;;;;;;;2.44;65.56;98048.38;6235632;28;20225;-72
2022/02/03 01:33:54;;;;;;;3.90;1.03;;;;;;;2.46;64.82;98059.56;6236694;28;20228;-72
2022/02/03 01:44:18;;;;;;;3.50;1.03;;;;;;;2.45;65.30;98065.69;6207106;28;20237;-72
2022/02/03 01:47:52;;;;;;;6.03;1.40;;;;;;;2.48;64.92;98072.53;6210389;28;20882;-71
2022/02/03 01:54:27;;;;;;;1.67;0.83;;;;;;;2.44;65.34;98076.16;6209969;28;20218;-72
2022/02/03 01:57:55;;;;;;;3.53;1.20;;;;;;;2.40;65.57;98083.25;6212870;28;20228;-73
2022/02/03 02:01:00;;;;;;;4.50;1.20;;;;;;;2.36;67.11;98086.06;6190829;28;20241;-73
2022/02/03 02:04:32;;;;;;;2.90;1.00;;;;;;;2.31;67.96;98090.59;6187486;28;20241;-73
2022/02/03 02:08:05;;;;;;;1.83;1.17;;;;;;;2.28;68.99;98098.56;6205211;28;20245;-73
2022/02/03 02:11:56;;;;;;;3.30;1.03;;;;;;;2.22;68.64;98095.28;6236348;28;20233;-72
2022/02/03 02:45:09;;;;;;;7.93;1.30;;;;;;;2.14;67.77;98102.53;6279101;28;20688;-72
2022/02/03 02:48:43;;;;;;;4.03;1.20;;;;;;;2.17;67.06;98085.97;6281903;28;20231;-73
2022/02/03 02:51:52;;;;;;;5.10;1.30;;;;;;;2.17;65.93;98094.63;6283615;28;20238;-73
2022/02/03 03:35:42;;;;;;;2.93;1.20;;;;;;;2.53;59.72;98114.84;6267343;28;20233;-73
2022/02/03 03:38:48;;;;;;;2.77;0.90;;;;;;;2.57;60.08;98111.22;6252417;28;20609;-73
2022/02/03 03:41:50;;;;;;;2.83;1.00;;;;;;;2.55;60.30;98118.25;6276682;28;20231;-73
2022/02/03 03:44:57;;;;;;;3.20;0.80;;;;;;;2.50;60.93;98114.97;6275800;28;20230;-72
2022/02/03 03:48:01;;;;;;;1.83;1.00;;;;;;;2.45;62.00;98102.16;6277129;28;20228;-72
2022/02/03 03:51:07;;;;;;;2.40;1.20;;;;;;;2.34;62.99;98112.16;6257641;28;20226;-73
2022/02/03 03:54:15;;;;;;;5.30;1.23;;;;;;;2.28;63.73;98108.97;6276610;28;20435;-73
2022/02/03 03:57:45;;;;;;;5.40;1.33;;;;;;;2.21;64.49;98111.81;6275239;28;20223;-72
2022/02/03 04:40:02;;;;;;;5.27;1.70;;;;;;;1.85;69.58;98157.50;6284015;28;20280;-73
2022/02/03 04:50:54;;;;;;;3.57;1.30;;;;;;;1.78;68.45;98149.06;6284635;28;20235;-73
2022/02/03 04:54:22;;;;;;;4.13;1.30;;;;;;;1.64;68.55;98153.09;6182391;28;20237;-73
2022/02/03 04:57:54;;;;;;;2.10;1.30;;;;;;;1.58;69.06;98151.56;6180456;28;20240;-72
2022/02/03 05:05:21;;;;;;;2.73;1.00;;;;;;;1.39;69.45;98156.59;6165666;28;20244;-73
2022/02/03 05:12:13;;;;;;;3.33;1.30;;;;;;;1.29;69.83;98170.84;6178390;28;20244;-73
2022/02/03 05:15:54;;;;;;;5.67;1.27;;;;;;;1.29;70.14;98168.22;6180129;28;20229;-72
2022/02/03 05:23:16;;;;;;;4.13;1.63;;;;;;;1.17;70.61;98158.25;6178094;28;20245;-72
2022/02/03 05:26:40;;;;;;;2.77;1.03;;;;;;;1.08;70.86;98176.78;6178884;28;20240;-72
2022/02/03 06:05:04;;;;;;;7.37;2.10;;;;;;;0.70;75.05;98176.28;6175905;28;20232;-72
2022/02/03 06:08:29;;;;;;;4.53;2.20;;;;;;;0.74;75.23;98182.25;6177340;28;20229;-72
2022/02/03 06:15:02;;;;;;;7.17;3.27;;;;;;;0.71;75.52;98179.75;6139736;28;20273;-72
2022/02/03 06:21:32;;;;;;;11.57;3.00;;;;;;;0.68;76.17;98188.50;6276841;28;20223;-71
2022/02/03 06:24:47;;;;;;;9.23;2.57;;;;;;;0.69;75.98;98179.81;6280009;28;20226;-72
2022/02/03 06:27:50;;;;;;;6.90;2.70;;;;;;;0.67;75.65;98192.00;6259360;28;20229;-72
2022/02/03 06:30:52;;;;;;;10.87;3.10;;;;;;;0.69;75.24;98205.78;6277611;28;20222;-72
2022/02/03 06:33:56;;;;;;;9.07;2.83;;;;;;;0.76;75.31;98208.19;6276654;28;20613;-72
2022/02/03 06:36:58;;;;;;;8.90;3.00;;;;;;;0.70;75.66;98212.66;6259552;28;20226;-72
2022/02/03 06:40:01;;;;;;;6.53;2.37;;;;;;;0.70;75.45;98219.59;6264007;28;20247;-72
2022/02/03 06:43:03;;;;;;;6.60;2.47;;;;;;;0.79;74.15;98232.31;6276043;28;20945;-72
2022/02/03 06:46:09;;;;;;;6.80;2.03;;;;;;;0.84;74.33;98232.16;6276419;28;20234;-72
2022/02/03 06:55:56;;;;;;;4.13;1.83;;;;;;;0.51;75.07;98252.25;6276430;28;20273;-72
2022/02/03 06:59:01;;;;;;;6.20;1.93;;;;;;;0.35;75.23;98257.91;6277056;28;20234;-71
2022/02/03 07:02:04;;;;;;;6.47;2.07;;;;;;;0.21;75.91;98261.81;6276282;28;20602;-72
2022/02/03 07:05:07;;;;;;;7.37;2.40;;;;;;;0.16;76.26;98264.56;6275169;28;20227;-72
2022/02/03 07:08:15;;;;;;;7.53;3.17;;;;;;;0.07;76.33;98271.75;6258181;28;20238;-72
2022/02/03 07:11:20;;;;;;;5.90;2.37;;;;;;;-0.03;76.65;98266.84;6275642;28;20348;-72
2022/02/03 07:14:24;;;;;;;4.10;2.60;;;;;;;-0.06;76.83;98276.44;6275632;28;20269;-72
2022/02/03 07:17:26;;;;;;;6.17;2.70;;;;;;;-0.09;77.17;98272.19;6275099;28;20241;-72
2022/02/03 07:20:30;;;;;;;5.33;2.07;;;;;;;-0.12;76.96;98274.03;6275931;28;20226;-72
2022/02/03 07:23:34;;;;;;;5.70;2.20;;;;;;;-0.16;77.33;98275.84;6257077;28;20256;-72
2022/02/03 07:26:36;;;;;;;6.93;2.73;;;;;;;0.16;77.30;98271.50;6274606;28;20222;-72
2022/02/03 07:29:39;;;;;;;11.27;2.60;;;;;;;0.49;75.66;98280.88;6276466;28;20241;-72
2022/02/03 07:32:41;;;;;;;11.40;2.43;;;;;;;0.66;74.73;98275.16;6275847;28;20230;-72
2022/02/03 07:35:45;;;;;;;5.57;2.50;;;;;;;0.86;73.90;98290.09;6274291;28;20760;-72
2022/02/03 07:38:47;;;;;;;5.70;2.10;;;;;;;0.89;74.42;98297.81;6275484;28;20728;-72
2022/02/03 07:41:50;;;;;;;7.87;2.30;;;;;;;0.90;74.42;98299.53;6274440;28;20235;-73
2022/02/03 07:44:52;;;;;;;3.43;1.70;;;;;;;0.96;74.08;98305.34;6256869;28;20234;-72
2022/02/03 07:47:54;;;;;;;6.17;2.13;;;;;;;0.95;74.07;98308.84;6256543;28;20231;-72
2022/02/03 07:50:58;;;;;;;4.80;2.10;;;;;;;0.99;73.80;98301.81;6257631;28;20230;-72
2022/02/03 07:54:03;;;;;;;4.10;2.07;;;;;;;1.03;73.99;98303.41;6256604;28;20230;-72
2022/02/03 07:57:06;;;;;;;4.83;1.93;;;;;;;0.97;74.21;98309.66;6273828;28;20238;-72
2022/02/03 08:00:08;;;;;;;9.30;2.70;;;;;;;0.98;74.18;98315.72;6275454;28;20697;-73
2022/02/03 08:03:31;;;;;;;7.03;2.70;;;;;;;0.89;74.06;98314.25;6274126;28;20311;-72
2022/02/03 08:06:38;;;;;;;5.80;2.00;;;;;;;0.85;74.39;98317.00;6275049;28;20227;-72
2022/02/03 08:09:51;;;;;;;5.67;2.23;;;;;;;0.84;74.56;98310.94;6274959;28;20230;-72
2022/02/03 08:12:53;;;;;;;4.93;2.00;;;;;;;0.83;74.67;98317.03;6273707;28;20321;-72
2022/02/03 08:16:13;;;;;;;6.07;2.00;;;;;;;0.85;74.81;98319.59;6274442;28;20605;-73
2022/02/03 08:19:28;;;;;;;4.67;1.97;;;;;;;0.90;75.03;98313.34;6255953;28;20227;-72
2022/02/03 08:22:37;;;;;;;8.10;2.37;;;;;;;1.05;73.90;98318.06;6273366;28;20233;-72
2022/02/03 08:25:48;;;;;;;5.97;2.27;;;;;;;1.35;72.37;98315.34;6274833;28;20230;-72
2022/02/03 08:32:01;;;;;;;9.17;2.33;;;;;;;1.71;71.35;98311.50;6274639;28;20234;-73
2022/02/03 08:41:09;;;;;;;8.73;2.30;;;;;;;2.00;70.05;98300.03;6227889;28;1314264;-72
2022/02/03 08:44:13;;;;;;;7.00;2.10;;;;;;;2.13;69.72;98306.53;6274943;28;20234;-72
2022/02/03 08:47:16;;;;;;;4.20;1.70;;;;;;;2.30;69.34;98305.88;6256221;28;20227;-73
2022/02/03 08:50:19;;;;;;;8.60;2.33;;;;;;;2.51;67.94;98299.03;6275542;28;20263;-72
2022/02/03 08:56:51;;;;;;;9.33;1.87;;;;;;;3.02;65.47;98313.53;6274254;28;20232;-72
2022/02/03 09:56:42;;;;;;;5.30;1.30;;;;;;;5.65;56.96;98293.72;6293065;28;20333;-72
2022/02/03 10:02:57;;;;;;;4.87;1.30;;;;;;;5.89;56.02;98282.84;6293082;28;20341;-74
2022/02/03 10:09:07;;;;;;;3.77;1.37;;;;;;;6.03;55.66;98279.53;6292192;28;20214;-73
2022/02/03 10:12:12;;;;;;;6.23;2.03;;;;;;;6.12;54.79;98286.03;6293767;28;20286;-73
2022/02/03 10:15:14;;;;;;;6.57;2.17;;;;;;;6.27;53.70;98280.00;6294392;28;20222;-73
2022/02/03 10:18:27;;;;;;;5.13;1.47;;;;;;;6.28;52.11;98284.31;6271206;28;20218;-73
2022/02/03 10:21:29;;;;;;;2.70;1.10;;;;;;;6.37;53.25;98277.75;6289067;28;20233;-73
2022/02/03 10:24:34;;;;;;;6.60;1.43;;;;;;;6.40;52.84;98270.53;6267656;28;20234;-74
2022/02/03 10:27:41;;;;;;;3.80;1.23;;;;;;;6.48;51.78;98275.38;6286691;28;20229;-74
2022/02/03 10:30:53;;;;;;;6.53;1.30;;;;;;;6.48;51.12;98272.75;6286621;28;20222;-74
2022/02/03 10:34:10;;;;;;;4.73;1.40;;;;;;;6.67;50.48;98260.34;6282167;28;20297;-73
2022/02/03 10:37:26;;;;;;;7.07;1.40;;;;;;;6.99;50.71;98263.75;6284853;28;20235;-74
2022/02/03 10:40:48;;;;;;;4.50;1.20;;;;;;;7.25;50.68;98257.03;6285159;28;20231;-74
2022/02/03 10:51:04;;;;;;;3.47;1.30;;;;;;;7.92;48.33;98242.53;6287437;28;20302;-73
2022/02/03 11:07:00;;;;;;;0.77;0.47;;;;;;;8.69;43.39;98224.56;6286317;28;20582;-73
2022/02/03 11:10:15;;;;;;;3.57;0.53;;;;;;;8.58;42.19;98223.56;6262927;28;20360;-73
2022/02/03 11:13:33;;;;;;;2.20;1.10;;;;;;;8.72;42.96;98219.09;6285223;28;20232;-73
2022/02/03 11:16:40;;;;;;;1.43;0.67;;;;;;;8.62;43.24;98212.75;6280037;28;20237;-74
2022/02/03 11:19:48;;;;;;;0.83;0.50;;;;;;;8.79;43.04;98198.50;6282129;28;20295;-74
2022/02/03 11:23:40;;;;;;;3.17;0.90;;;;;;;8.84;42.22;98204.31;6261045;28;20229;-73
2022/02/03 11:26:29;;;;;;;3.23;1.00;;;;;;;8.62;42.13;98201.38;6252865;28;20236;-73
2022/02/03 11:33:14;;;;;;;3.10;0.83;;;;;;;8.66;43.55;98184.47;6277948;28;20264;-74
2022/02/03 11:46:38;;;;;;;6.53;0.80;;;;;;;8.62;43.71;98173.28;6258591;28;20237;-73
2022/02/03 12:03:51;;;;;;;3.80;0.90;;;;;;;9.32;42.71;98129.13;6275363;28;20654;-73
2022/02/03 12:07:24;;;;;;;1.20;0.70;;;;;;;9.35;42.55;98121.00;6275335;28;20245;-74
2022/02/03 12:11:06;;;;;;;3.57;1.10;;;;;;;9.54;42.33;98116.16;6275362;28;20237;-73
2022/02/03 12:18:06;;;;;;;4.23;1.20;;;;;;;9.84;41.74;98110.56;6275362;28;20236;-71
2022/02/03 12:21:14;;;;;;;1.80;0.70;;;;;;;9.67;42.41;98121.44;6274639;28;20242;-73
2022/02/03 12:24:31;;;;;;;2.37;0.90;;;;;;;9.57;42.07;98110.69;6275860;28;20225;-74
2022/02/03 12:27:48;;;;;;;2.40;1.20;;;;;;;9.46;41.51;98104.47;6257927;28;20226;-73
2022/02/03 12:41:10;;;;;;;3.87;1.30;;;;;;;8.96;44.94;98100.00;6069943;28;20270;-71
2022/02/03 12:44:19;;;;;;;3.87;1.47;;;;;;;8.88;44.39;98101.34;6256361;28;20316;-72
2022/02/03 12:47:24;;;;;;;4.20;1.43;;;;;;;9.01;45.26;98095.28;6279787;28;20733;-72
2022/02/03 12:50:33;;;;;;;8.10;1.70;;;;;;;9.06;45.28;98098.44;6279553;28;20230;-72
2022/02/03 12:53:38;;;;;;;7.30;1.77;;;;;;;8.94;46.55;98099.28;6279362;28;20364;-71
2022/02/03 12:56:40;;;;;;;5.33;1.53;;;;;;;8.97;46.93;98092.03;6279572;28;20229;-72
2022/02/03 12:59:42;;;;;;;4.87;2.03;;;;;;;9.01;46.96;98092.63;6280031;28;20240;-72
2022/02/03 13:02:55;;;;;;;7.07;1.70;;;;;;;9.01;46.92;98087.38;6278787;28;20234;-72
2022/02/03 13:06:04;;;;;;;6.20;1.77;;;;;;;9.06;47.58;98083.50;6279130;28;20238;-72
2022/02/03 13:09:08;;;;;;;3.70;1.30;;;;;;;9.22;47.81;98078.03;6278385;28;20234;-71
2022/02/03 13:12:21;;;;;;;6.90;2.13;;;;;;;9.39;47.37;98064.53;6279553;28;20219;-72
2022/02/03 13:15:37;;;;;;;4.43;1.67;;;;;;;9.46;46.89;98059.69;6278206;28;20231;-71
2022/02/03 13:18:48;;;;;;;7.27;1.80;;;;;;;9.92;45.70;98052.00;6261050;28;20234;-72
2022/02/03 13:22:00;;;;;;;4.63;1.40;;;;;;;10.19;44.88;98052.66;6279199;28;20590;-72
2022/02/03 13:25:14;;;;;;;5.80;1.83;;;;;;;12.61;40.68;98040.84;6277943;28;20227;-72
2022/02/03 13:28:25;;;;;;;4.67;1.70;;;;;;;13.75;36.66;98044.38;6283744;28;20349;-71
2022/02/03 13:31:44;;;;;;;5.13;1.60;;;;;;;14.61;35.39;98047.22;6277679;28;20241;-72
2022/02/03 13:35:29;;;;;;;2.93;1.10;;;;;;;15.77;32.92;98047.84;6278042;28;20230;-72
2022/02/03 13:42:18;;;;;;;5.60;1.70;;;;;;;14.63;35.52;98039.97;6200943;28;20663;-74
2022/02/03 13:45:22;;;;;;;4.17;1.50;;;;;;;12.93;36.70;98042.50;6201540;28;20229;-72
2022/02/03 13:48:25;;;;;;;4.53;1.67;;;;;;;12.18;38.79;98044.34;6201848;28;20633;-71
2022/02/03 13:51:30;;;;;;;3.73;1.30;;;;;;;11.59;41.26;98035.88;6184564;28;20235;-72
2022/02/03 14:19:12;;;;;;;2.93;1.40;;;;;;;8.97;48.52;98010.41;6238557;28;20222;-65
2022/02/03 14:22:11;;;;;;;3.73;1.27;;;;;;;8.89;49.58;98004.81;6277843;28;20587;-64
2022/02/03 14:28:36;;;;;;;4.03;1.97;;;;;;;8.96;48.55;98003.47;6276927;28;20345;-64
2022/02/03 14:31:40;;;;;;;3.57;1.27;;;;;;;8.95;49.19;98001.78;6276939;28;20230;-64
2022/02/03 14:34:42;;;;;;;4.60;1.37;;;;;;;8.88;48.87;97996.06;6276579;28;20245;-64
2022/02/03 14:37:51;;;;;;;2.93;1.20;;;;;;;8.82;49.56;97998.28;6276851;28;20230;-64
2022/02/03 14:41:10;;;;;;;5.87;1.80;;;;;;;8.63;50.53;97988.19;6277137;28;20251;-64
2022/02/03 14:44:15;;;;;;;3.37;1.33;;;;;;;8.48;49.97;97991.84;6276344;28;20277;-64
2022/02/03 14:47:20;;;;;;;4.60;1.60;;;;;;;8.34;50.17;97989.28;6276536;28;20231;-64
2022/02/03 14:50:23;;;;;;;6.73;1.90;;;;;;;8.25;51.34;97987.22;6276310;28;20238;-64
2022/02/03 14:53:49;;;;;;;5.90;1.30;;;;;;;8.26;52.30;97983.66;6276613;28;20235;-64
2022/02/03 15:00:13;;;;;;;4.23;1.30;;;;;;;8.09;52.79;97977.69;6275345;28;20594;-64
2022/02/03 15:03:17;;;;;;;5.03;1.37;;;;;;;7.89;51.53;97970.28;6276927;28;20245;-64
2022/02/03 15:06:28;;;;;;;4.63;1.50;;;;;;;7.75;52.17;97979.06;6275976;28;20231;-66
2022/02/03 15:13:01;;;;;;;3.07;1.53;;;;;;;7.52;52.75;97968.31;6275710;28;20234;-72
2022/02/03 15:16:04;;;;;;;4.57;1.10;;;;;;;7.43;52.65;97968.91;6257740;28;20260;-72
2022/02/03 15:19:06;;;;;;;2.30;1.23;;;;;;;7.34;54.00;97968.56;6257793;28;20939;-71
2022/02/03 15:22:08;;;;;;;2.77;1.10;;;;;;;7.24;54.33;97954.31;6276025;28;20241;-72
2022/02/03 15:25:11;;;;;;;1.67;1.03;;;;;;;7.18;54.91;97952.09;6275761;28;20613;-72
2022/02/03 15:28:13;;;;;;;3.37;1.10;;;;;;;7.10;55.69;97942.97;6276592;28;20234;-72
2022/02/03 15:31:16;;;;;;;3.33;0.80;;;;;;;6.95;56.31;97947.41;6275869;28;20252;-72
2022/02/03 15:34:21;;;;;;;1.37;0.70;;;;;;;6.76;56.00;97946.84;6257723;28;20322;-72
2022/02/03 15:37:26;;;;;;;2.27;0.60;;;;;;;6.62;56.82;97945.88;6275422;28;20791;-72
2022/02/03 15:40:29;;;;;;;3.03;0.80;;;;;;;6.49;57.41;97944.13;6275746;28;20241;-72
2022/02/03 15:43:39;;;;;;;5.47;1.10;;;;;;;6.27;57.08;97934.06;6263156;28;20317;-72
2022/02/03 15:46:56;;;;;;;1.40;0.80;;;;;;;6.00;58.17;97946.97;6275658;28;20506;-72
2022/02/03 15:56:50;;;;;;;3.13;0.70;;;;;;;5.16;60.68;97937.75;6274212;28;20232;-71
2022/02/03 16:03:28;;;;;;;2.50;1.00;;;;;;;4.77;61.97;97930.25;6273525;28;20288;-72
2022/02/03 16:13:28;;;;;;;2.10;1.33;;;;;;;4.32;64.08;97916.03;6280524;28;20239;-72
2022/02/03 16:50:41;;;;;;;1.40;1.03;;;;;;;3.43;69.14;97892.69;6256169;28;20280;-71
2022/02/03 16:53:44;;;;;;;4.97;1.00;;;;;;;3.31;70.35;97898.47;6255996;28;20336;-72
2022/02/03 16:56:50;;;;;;;2.67;0.90;;;;;;;3.23;70.41;97888.41;6255703;28;20605;-72
2022/02/03 17:00:07;;;;;;;2.87;1.03;;;;;;;3.15;70.50;97881.88;6255492;28;20231;-72
2022/02/03 17:03:29;;;;;;;3.03;1.47;;;;;;;3.03;71.16;97892.88;6255900;28;20231;-72
2022/02/03 17:06:31;;;;;;;2.07;0.90;;;;;;;2.92;71.19;97882.97;6254981;28;20254;-72
2022/02/03 17:09:35;;;;;;;1.17;0.93;;;;;;;2.79;71.49;97876.66;6255424;28;20233;-73
2022/02/03 17:12:37;;;;;;;1.10;0.70;;;;;;;2.63;72.09;97868.66;6254429;28;20578;-72
2022/02/03 17:15:39;;;;;;;4.37;1.00;;;;;;;2.53;72.15;97860.41;6253356;28;20226;-73
2022/02/03 17:18:41;;;;;;;1.10;0.77;;;;;;;2.41;72.58;97868.78;6253253;28;20226;-72
2022/02/03 17:21:43;;;;;;;4.13;2.07;;;;;;;2.31;72.91;97853.63;6253851;28;20273;-72
2022/02/03 17:28:11;;;;;;;1.47;1.20;;;;;;;2.15;72.79;97843.06;6254829;28;20256;-73
2022/02/03 18:11:18;;;;;;;4.83;1.20;;;;;;;1.84;75.38;97771.53;6259080;28;20229;-72
2022/02/03 18:30:34;;;;;;;2.53;1.10;;;;;;;1.76;76.43;97755.44;6251746;28;20705;-71
2022/02/03 18:34:06;;;;;;;2.13;1.47;;;;;;;1.76;76.62;97751.97;6253312;28;20233;-73
2022/02/03 18:37:35;;;;;;;2.73;1.10;;;;;;;1.75;76.40;97752.88;6252405;28;20239;-73
2022/02/03 18:50:52;;;;;;;2.73;1.30;;;;;;;1.75;77.24;97714.72;6252980;28;20239;-73
2022/02/03 18:54:03;;;;;;;3.17;1.27;;;;;;;1.78;77.34;97711.13;6250870;28;20576;-73
2022/02/03 19:24:03;;;;;;;2.33;1.50;;;;;;;1.84;77.92;97666.63;6224863;28;20731;-72
2022/02/03 19:27:25;;;;;;;1.60;1.00;;;;;;;1.83;78.06;97665.78;6252670;28;20700;-73
2022/02/03 20:04:24;;;;;;;3.23;1.27;;;;;;;1.93;78.24;97641.94;6252379;28;20236;-72
2022/02/03 20:10:37;;;;;;;3.03;2.10;;;;;;;1.89;78.10;97638.66;6252035;28;20246;-72
2022/02/03 20:13:44;;;;;;;3.83;1.40;;;;;;;1.85;78.31;97637.09;6251645;28;20760;-72
2022/02/03 20:16:47;;;;;;;2.53;1.60;;;;;;;1.80;78.57;97633.84;6249861;28;20471;-72
2022/02/03 20:19:50;;;;;;;4.37;1.90;;;;;;;1.77;78.50;97631.41;6251489;28;20236;-73
2022/02/03 20:22:52;;;;;;;4.83;1.60;;;;;;;1.75;78.82;97622.81;6266731;28;20727;-72
2022/02/03 20:25:58;;;;;;;4.27;1.47;;;;;;;1.71;79.18;97624.69;6232526;28;20619;-72
2022/02/03 20:29:01;;;;;;;3.13;1.57;;;;;;;1.66;79.17;97623.25;6251520;28;20258;-72
2022/02/03 20:32:03;;;;;;;3.40;1.80;;;;;;;1.63;79.42;97619.00;6251633;28;20272;-73
2022/02/03 20:35:06;;;;;;;8.97;1.80;;;;;;;1.61;79.50;97609.59;6249130;28;20241;-72
2022/02/03 20:38:08;;;;;;;2.63;1.70;;;;;;;1.60;79.91;97608.75;6250450;28;20235;-73
2022/02/03 20:41:11;;;;;;;2.73;1.50;;;;;;;1.57;79.70;97608.91;6268799;28;20295;-72
2022/02/03 20:44:14;;;;;;;2.80;1.47;;;;;;;1.49;79.69;97595.41;6274307;28;20231;-72
2022/02/03 20:47:18;;;;;;;4.53;1.97;;;;;;;1.42;79.32;97597.44;6274843;28;20256;-72
2022/02/03 20:50:20;;;;;;;5.50;2.03;;;;;;;1.35;79.77;97584.78;6281125;28;20242;-73
2022/02/03 20:53:23;;;;;;;5.67;2.07;;;;;;;1.26;79.56;97580.00;6279698;28;20226;-72
2022/02/03 20:56:25;;;;;;;3.90;1.70;;;;;;;1.18;79.48;97571.69;6284608;28;20223;-73
2022/02/03 20:59:37;;;;;;;4.40;1.83;;;;;;;1.10;79.61;97564.22;6284883;28;20786;-73
2022/02/03 21:02:51;;;;;;;3.80;2.00;;;;;;;1.02;79.88;97561.13;6261742;28;20224;-73
2022/02/03 21:05:55;;;;;;;4.43;2.10;;;;;;;0.91;79.66;97563.34;6280792;28;20231;-72
2022/02/03 21:08:57;;;;;;;4.33;2.00;;;;;;;0.81;80.43;97549.91;6279305;28;20504;-73
2022/02/03 21:11:59;;;;;;;6.80;2.10;;;;;;;0.75;79.83;97555.38;6280480;28;20230;-72
2022/02/03 21:15:01;;;;;;;3.93;2.27;;;;;;;0.69;79.82;97545.28;6278059;28;20257;-73
2022/02/03 21:18:09;;;;;;;4.03;1.90;;;;;;;0.58;80.14;97537.09;6279495;28;20275;-72
2022/02/03 21:21:11;;;;;;;2.63;1.90;;;;;;;0.51;80.12;97552.06;6278815;28;20206;-72
2022/02/03 21:24:13;;;;;;;4.10;1.93;;;;;;;0.48;79.92;97560.03;6279277;28;20752;-73
2022/02/03 21:27:19;;;;;;;3.30;1.73;;;;;;;0.43;80.29;97556.75;6278938;28;20215;-72
2022/02/03 21:30:22;;;;;;;4.40;2.20;;;;;;;0.36;80.16;97544.94;6279510;28;20234;-73
2022/02/03 21:33:30;;;;;;;4.23;2.00;;;;;;;0.35;80.74;97541.50;6278559;28;20222;-73
2022/02/03 21:36:37;;;;;;;3.13;1.87;;;;;;;0.37;80.59;97538.84;6278438;28;20279;-72
2022/02/03 21:39:39;;;;;;;3.60;2.20;;;;;;;0.41;80.50;97530.00;6278173;28;20249;-73
2022/02/03 21:42:42;;;;;;;3.17;1.80;;;;;;;0.36;80.64;97527.63;6277862;28;20226;-72
2022/02/03 21:45:44;;;;;;;4.27;1.97;;;;;;;0.32;80.31;97520.03;6278297;28;20218;-73
2022/02/03 21:48:49;;;;;;;3.10;2.30;;;;;;;0.30;80.53;97534.84;6279112;28;20986;-73
2022/02/03 21:51:54;;;;;;;1.90;1.63;;;;;;;0.28;81.29;97542.69;6278856;28;20226;-73
2022/02/03 21:54:58;;;;;;;2.30;1.77;;;;;;;0.33;80.93;97555.44;6284123;28;20230;-72
2022/02/03 21:58:01;;;;;;;4.07;1.80;;;;;;;0.31;81.14;97547.72;6277144;28;20222;-73
2022/02/03 22:01:03;;;;;;;2.57;2.00;;;;;;;0.28;81.23;97547.88;6278702;28;20271;-72
2022/02/03 22:04:06;;;;;;;4.53;2.00;;;;;;;0.28;81.09;97536.66;6278328;28;20273;-72
2022/02/03 22:07:08;;;;;;;3.20;1.60;;;;;;;0.30;81.53;97543.44;6269136;28;20230;-73
2022/02/03 22:10:12;;;;;;;2.40;1.60;;;;;;;0.33;81.34;97545.91;6278273;28;20577;-72
2022/02/03 22:13:15;;;;;;;7.27;2.43;;;;;;;0.36;81.71;97543.19;6277220;28;20222;-73
2022/02/03 22:16:23;;;;;;;2.07;1.80;;;;;;;0.33;81.87;97538.13;6278012;28;20233;-72
2022/02/03 22:19:27;;;;;;;2.20;1.77;;;;;;;0.33;81.59;97539.88;6260249;28;20716;-73
2022/02/03 22:23:24;;;;;;;3.33;2.10;;;;;;;0.30;81.54;97525.28;6259157;28;20305;-73
2022/02/03 22:45:47;;;;;;;4.00;2.03;;;;;;;0.04;82.18;97498.72;6280811;28;20568;-73
2022/02/03 22:48:48;;;;;;;5.63;2.00;;;;;;;-0.03;82.10;97504.19;6277651;28;20239;-73
2022/02/03 22:51:50;;;;;;;3.50;1.70;;;;;;;-0.07;82.58;97497.41;6242136;28;21062;-72
2022/02/03 22:54:53;;;;;;;4.50;1.60;;;;;;;-0.12;82.46;97491.59;6277770;28;20772;-72
2022/02/03 22:58:27;;;;;;;3.03;1.90;;;;;;;-0.13;82.46;97494.25;6276764;28;20292;-73
2022/02/03 23:01:17;;;;;;;3.13;2.13;;;;;;;-0.15;82.87;97501.25;6275273;28;20242;-72
2022/02/03 23:04:19;;;;;;;3.90;1.90;;;;;;;-0.15;82.99;97493.47;6258494;28;20238;-73
2022/02/03 23:07:34;;;;;;;3.30;1.80;;;;;;;-0.13;83.02;97489.06;6275354;28;20299;-72
2022/02/03 23:10:50;;;;;;;5.63;2.10;;;;;;;-0.15;82.88;97481.34;6261364;28;20230;-72
2022/02/03 23:17:28;;;;;;;2.93;2.00;;;;;;;-0.10;82.77;97475.97;6276226;28;20238;-73
2022/02/03 23:21:12;;;;;;;4.00;2.30;;;;;;;-0.11;83.33;97459.56;6275900;28;20716;-73
2022/02/03 23:23:49;;;;;;;4.53;2.00;;;;;;;-0.12;82.99;97449.25;6276061;28;20230;-73
2022/02/03 23:27:02;;;;;;;3.53;2.60;;;;;;;-0.12;83.49;97437.13;6276896;28;20349;-72
2022/02/03 23:30:06;;;;;;;4.60;2.10;;;;;;;-0.09;83.57;97442.16;6276419;28;20853;-72
2022/02/03 23:33:08;;;;;;;5.60;2.47;;;;;;;-0.06;83.29;97423.91;6277137;28;20642;-73
2022/02/03 23:36:10;;;;;;;2.33;2.13;;;;;;;-0.04;83.46;97426.44;6275952;28;20241;-73
2022/02/03 23:39:22;;;;;;;3.43;2.33;;;;;;;-0.03;83.39;97444.53;6241550;28;20198;-72
2022/02/03 23:43:23;;;;;;;2.80;2.00;;;;;;;0.01;83.89;97458.19;6241849;28;20280;-72
